createdAt,value
2018-06-30T00:01:10.199Z,18.35
2018-06-30T00:03:44.326Z,18.35
2018-06-30T00:06:13.303Z,18.35
2018-06-30T00:08:42.417Z,18.33
2018-06-30T00:11:11.385Z,18.26
2018-06-30T00:13:40.440Z,18.24
2018-06-30T00:16:09.540Z,18.23
2018-06-30T00:18:38.560Z,18.29
2018-06-30T00:21:07.987Z,18.25
2018-06-30T00:23:37.001Z,18.21
2018-06-30T00:26:06.382Z,18.21
2018-06-30T00:28:35.365Z,18.20
2018-06-30T00:31:04.475Z,18.18
2018-06-30T00:33:33.446Z,18.18
2018-06-30T00:36:02.432Z,18.18
2018-06-30T00:38:31.421Z,18.19
2018-06-30T00:41:00.476Z,18.21
2018-06-30T00:43:29.524Z,18.23
2018-06-30T00:45:58.516Z,18.22
2018-06-30T00:48:27.537Z,18.23
2018-06-30T00:50:56.561Z,18.20
2018-06-30T00:53:25.540Z,18.23
2018-06-30T00:55:54.661Z,18.22
2018-06-30T00:58:26.621Z,18.22
2018-06-30T01:00:55.648Z,18.22
2018-06-30T01:03:24.756Z,18.23
2018-06-30T01:05:53.748Z,18.24
2018-06-30T01:08:22.812Z,18.24
2018-06-30T01:10:51.897Z,18.24
2018-06-30T01:13:20.859Z,18.25
2018-06-30T01:15:49.839Z,18.22
2018-06-30T01:18:18.892Z,18.22
2018-06-30T01:20:47.945Z,18.22
2018-06-30T01:23:16.919Z,18.19
2018-06-30T01:25:45.964Z,18.16
2018-06-30T01:28:14.948Z,18.18
2018-06-30T01:30:44.000Z,18.18
2018-06-30T01:33:12.967Z,18.15
2018-06-30T01:35:41.949Z,18.17
2018-06-30T01:38:10.916Z,18.14
2018-06-30T01:40:39.926Z,18.14
2018-06-30T01:43:09.000Z,18.11
2018-06-30T01:45:37.972Z,18.12
2018-06-30T01:48:07.008Z,18.13
2018-06-30T01:50:35.986Z,18.14
2018-06-30T01:53:04.979Z,18.14
2018-06-30T01:55:33.937Z,18.16
2018-06-30T01:58:02.940Z,18.15
2018-06-30T02:00:31.903Z,18.18
2018-06-30T02:03:00.896Z,18.16
2018-06-30T02:05:29.859Z,18.17
2018-06-30T02:07:58.937Z,18.15
2018-06-30T02:10:27.987Z,18.15
2018-06-30T02:12:56.981Z,18.15
2018-06-30T02:15:25.959Z,18.17
2018-06-30T02:17:54.944Z,18.18
2018-06-30T02:20:23.912Z,18.18
2018-06-30T02:22:52.995Z,18.19
2018-06-30T02:25:22.015Z,18.21
2018-06-30T02:27:51.063Z,18.18
2018-06-30T02:30:20.055Z,18.16
2018-06-30T02:32:49.110Z,18.16
2018-06-30T02:35:18.169Z,18.18
2018-06-30T02:37:47.273Z,18.19
2018-06-30T02:40:16.319Z,18.20
2018-06-30T02:42:45.292Z,18.22
2018-06-30T02:45:14.321Z,18.23
2018-06-30T02:47:43.316Z,18.21
2018-06-30T02:50:12.404Z,18.21
2018-06-30T02:52:41.404Z,18.20
2018-06-30T02:55:10.480Z,18.17
2018-06-30T02:57:39.520Z,18.18
2018-06-30T03:00:08.532Z,18.22
2018-06-30T03:02:37.512Z,18.09
2018-06-30T03:05:06.642Z,18.08
2018-06-30T03:07:35.709Z,18.02
2018-06-30T03:10:04.821Z,17.97
2018-06-30T03:12:33.817Z,17.97
2018-06-30T03:15:02.805Z,17.94
2018-06-30T03:17:31.847Z,17.98
2018-06-30T03:20:00.863Z,18.02
2018-06-30T03:22:29.884Z,18.04
2018-06-30T03:24:58.852Z,18.12
2018-06-30T03:27:27.956Z,18.16
2018-06-30T03:29:56.919Z,18.16
2018-06-30T03:32:25.896Z,18.19
2018-06-30T03:34:54.893Z,18.23
2018-06-30T03:37:23.918Z,18.32
2018-06-30T03:39:53.009Z,18.32
2018-06-30T03:42:22.005Z,18.31
2018-06-30T03:44:51.064Z,18.30
2018-06-30T03:47:20.040Z,18.28
2018-06-30T03:49:49.133Z,18.30
2018-06-30T03:52:18.109Z,18.32
2018-06-30T03:54:47.232Z,18.33
2018-06-30T03:57:16.304Z,18.36
2018-06-30T03:59:45.272Z,18.38
2018-06-30T04:02:14.319Z,18.41
2018-06-30T04:04:43.617Z,18.39
2018-06-30T04:07:12.636Z,18.42
2018-06-30T04:09:41.599Z,18.44
2018-06-30T04:12:10.629Z,18.44
2018-06-30T04:14:39.720Z,18.45
2018-06-30T04:17:08.717Z,18.46
2018-06-30T04:19:37.733Z,18.48
2018-06-30T04:22:06.771Z,18.57
2018-06-30T04:24:35.847Z,18.58
2018-06-30T04:27:05.140Z,18.61
2018-06-30T04:29:34.252Z,18.62
2018-06-30T04:32:03.244Z,18.63
2018-06-30T04:34:32.280Z,18.69
2018-06-30T04:37:01.261Z,18.73
2018-06-30T04:39:30.365Z,18.78
2018-06-30T04:41:59.347Z,18.80
2018-06-30T04:44:28.363Z,18.83
2018-06-30T04:46:57.344Z,18.83
2018-06-30T04:49:26.409Z,18.91
2018-06-30T04:51:55.915Z,18.96
2018-06-30T04:54:24.972Z,18.95
2018-06-30T04:56:53.940Z,18.97
2018-06-30T04:59:22.996Z,18.97
2018-06-30T05:01:52.163Z,18.99
2018-06-30T05:04:21.748Z,19.03
2018-06-30T05:06:50.948Z,19.06
2018-06-30T05:09:20.199Z,19.14
2018-06-30T05:11:49.531Z,19.19
2018-06-30T05:14:18.768Z,19.25
2018-06-30T05:16:47.908Z,19.24
2018-06-30T05:19:17.119Z,19.24
2018-06-30T05:21:46.421Z,19.27
2018-06-30T05:24:15.547Z,19.28
2018-06-30T05:26:44.804Z,19.35
2018-06-30T05:29:14.013Z,19.47
2018-06-30T05:31:43.253Z,19.53
2018-06-30T05:34:12.538Z,19.67
2018-06-30T05:36:41.897Z,19.80
2018-06-30T05:39:11.117Z,19.92
2018-06-30T05:41:40.448Z,20.07
2018-06-30T05:44:09.729Z,20.23
2018-06-30T05:46:39.065Z,20.36
2018-06-30T05:49:08.569Z,20.42
2018-06-30T05:51:37.936Z,20.50
2018-06-30T05:54:07.243Z,20.60
2018-06-30T05:56:36.551Z,20.66
2018-06-30T05:59:05.901Z,20.66
2018-06-30T06:01:35.228Z,20.68
2018-06-30T06:04:04.731Z,20.73
2018-06-30T06:06:34.076Z,20.78
2018-06-30T06:09:03.674Z,20.78
2018-06-30T06:11:32.925Z,20.73
2018-06-30T06:14:02.225Z,20.71
2018-06-30T06:16:31.669Z,20.72
2018-06-30T06:19:00.891Z,20.71
2018-06-30T06:21:30.137Z,20.67
2018-06-30T06:23:59.397Z,20.68
2018-06-30T06:26:28.838Z,20.68
2018-06-30T06:28:58.038Z,20.69
2018-06-30T06:31:27.332Z,20.72
2018-06-30T06:33:56.493Z,20.75
2018-06-30T06:36:25.704Z,20.72
2018-06-30T06:38:55.073Z,20.78
2018-06-30T06:41:24.289Z,20.83
2018-06-30T06:43:53.661Z,20.84
2018-06-30T06:46:22.889Z,20.93
2018-06-30T06:48:52.298Z,21.01
2018-06-30T06:51:21.685Z,21.10
2018-06-30T06:53:50.928Z,21.13
2018-06-30T06:56:20.361Z,21.11
2018-06-30T06:58:49.572Z,21.11
2018-06-30T07:01:18.841Z,21.00
2018-06-30T07:03:48.098Z,21.14
2018-06-30T07:06:18.260Z,21.19
2018-06-30T07:08:47.587Z,21.17
2018-06-30T07:11:16.800Z,21.19
2018-06-30T07:13:46.099Z,21.22
2018-06-30T07:16:15.442Z,21.26
2018-06-30T07:18:44.792Z,21.22
2018-06-30T07:21:14.092Z,21.19
2018-06-30T07:23:43.440Z,21.13
2018-06-30T07:26:12.737Z,21.16
2018-06-30T07:28:42.200Z,21.29
2018-06-30T07:31:11.455Z,21.40
2018-06-30T07:33:40.664Z,21.43
2018-06-30T07:36:10.039Z,21.41
2018-06-30T07:38:39.541Z,21.38
2018-06-30T07:41:08.788Z,21.35
2018-06-30T07:43:38.037Z,21.42
2018-06-30T07:46:07.325Z,21.51
2018-06-30T07:48:36.729Z,21.61
2018-06-30T07:51:05.980Z,21.71
2018-06-30T07:53:35.229Z,21.75
2018-06-30T07:56:04.577Z,21.83
2018-06-30T07:58:33.828Z,21.86
2018-06-30T08:01:03.082Z,21.97
2018-06-30T08:03:32.320Z,22.09
2018-06-30T08:06:01.529Z,22.21
2018-06-30T08:08:30.770Z,22.21
2018-06-30T08:11:00.050Z,22.14
2018-06-30T08:13:29.562Z,22.10
2018-06-30T08:15:58.840Z,22.02
2018-06-30T08:18:27.996Z,21.92
2018-06-30T08:20:57.197Z,21.93
2018-06-30T08:23:26.480Z,22.03
2018-06-30T08:25:55.648Z,22.12
2018-06-30T08:28:24.854Z,22.01
2018-06-30T08:30:54.123Z,21.99
2018-06-30T08:33:23.404Z,21.82
2018-06-30T08:35:52.669Z,21.78
2018-06-30T08:38:21.784Z,21.78
2018-06-30T08:40:51.064Z,21.82
2018-06-30T08:43:20.300Z,21.88
2018-06-30T08:45:49.969Z,21.87
2018-06-30T08:48:19.251Z,22.08
2018-06-30T08:50:48.574Z,22.15
2018-06-30T08:53:17.957Z,22.19
2018-06-30T08:55:47.101Z,22.17
2018-06-30T08:58:16.348Z,22.11
2018-06-30T09:00:45.532Z,22.04
2018-06-30T09:03:14.820Z,21.89
2018-06-30T09:05:44.201Z,21.73
2018-06-30T09:08:13.429Z,21.66
2018-06-30T09:10:42.767Z,21.53
2018-06-30T09:13:12.132Z,21.40
2018-06-30T09:15:41.344Z,21.31
2018-06-30T09:18:10.773Z,21.26
2018-06-30T09:20:40.214Z,21.25
2018-06-30T09:23:09.556Z,21.27
2018-06-30T09:25:38.893Z,21.28
2018-06-30T09:28:08.312Z,21.27
2018-06-30T09:30:37.713Z,21.29
2018-06-30T09:33:06.965Z,21.33
2018-06-30T09:35:36.318Z,21.40
2018-06-30T09:38:05.571Z,21.54
2018-06-30T09:40:34.903Z,21.68
2018-06-30T09:43:04.264Z,21.95
2018-06-30T09:45:33.656Z,22.14
2018-06-30T09:48:02.933Z,22.23
2018-06-30T09:50:32.224Z,22.45
2018-06-30T09:53:01.625Z,22.63
2018-06-30T09:55:30.880Z,22.79
2018-06-30T09:58:00.266Z,22.95
2018-06-30T10:00:34.313Z,22.89
2018-06-30T10:03:03.476Z,22.91
2018-06-30T10:05:32.903Z,22.81
2018-06-30T10:08:02.041Z,22.74
2018-06-30T10:10:31.249Z,22.75
2018-06-30T10:13:00.521Z,22.63
2018-06-30T10:15:29.804Z,22.54
2018-06-30T10:17:58.836Z,22.54
2018-06-30T10:20:28.041Z,22.68
2018-06-30T10:22:57.419Z,23.07
2018-06-30T10:25:26.804Z,23.60
2018-06-30T10:27:56.092Z,23.83
2018-06-30T10:30:25.499Z,23.83
2018-06-30T10:32:54.716Z,23.63
2018-06-30T10:35:23.808Z,23.50
2018-06-30T10:37:53.005Z,23.33
2018-06-30T10:40:22.297Z,23.19
2018-06-30T10:42:51.819Z,23.05
2018-06-30T10:45:21.101Z,22.98
2018-06-30T10:47:50.297Z,23.00
2018-06-30T10:50:19.533Z,23.01
2018-06-30T10:52:48.801Z,23.02
2018-06-30T10:55:18.158Z,22.98
2018-06-30T10:57:47.392Z,22.82
2018-06-30T11:00:16.756Z,22.50
2018-06-30T11:02:45.900Z,22.22
2018-06-30T11:05:15.099Z,21.92
2018-06-30T11:07:44.776Z,21.71
2018-06-30T11:10:14.216Z,21.66
2018-06-30T11:12:43.544Z,21.44
2018-06-30T11:15:12.829Z,21.31
2018-06-30T11:17:42.270Z,21.21
2018-06-30T11:20:11.688Z,21.09
2018-06-30T11:22:41.012Z,20.98
2018-06-30T11:25:10.829Z,20.93
2018-06-30T11:27:40.038Z,21.01
2018-06-30T11:30:09.389Z,21.04
2018-06-30T11:32:38.689Z,21.13
2018-06-30T11:35:08.288Z,21.29
2018-06-30T11:37:37.570Z,21.54
2018-06-30T11:40:06.781Z,21.85
2018-06-30T11:42:36.029Z,22.22
2018-06-30T11:45:05.488Z,22.49
2018-06-30T11:47:34.665Z,22.64
2018-06-30T11:50:04.045Z,22.67
2018-06-30T11:52:33.320Z,22.62
2018-06-30T11:55:02.461Z,22.44
2018-06-30T11:57:31.664Z,22.25
2018-06-30T12:00:00.832Z,22.12
2018-06-30T12:02:30.015Z,21.99
2018-06-30T12:04:59.256Z,21.88
2018-06-30T12:07:28.469Z,21.89
2018-06-30T12:09:57.846Z,21.90
2018-06-30T12:12:27.112Z,21.96
2018-06-30T12:14:56.348Z,22.09
2018-06-30T12:17:25.556Z,22.24
2018-06-30T12:19:54.868Z,22.42
2018-06-30T12:22:24.111Z,22.53
2018-06-30T12:24:53.505Z,22.55
2018-06-30T12:27:22.669Z,22.55
2018-06-30T12:29:51.881Z,22.56
2018-06-30T12:32:21.199Z,22.56
2018-06-30T12:34:50.550Z,22.60
2018-06-30T12:37:19.860Z,22.61
2018-06-30T12:39:49.163Z,22.41
2018-06-30T12:42:18.524Z,22.32
2018-06-30T12:44:47.675Z,22.20
2018-06-30T12:47:17.213Z,22.07
2018-06-30T12:49:46.532Z,21.85
2018-06-30T12:52:15.793Z,21.70
2018-06-30T12:54:45.165Z,21.61
2018-06-30T12:57:14.603Z,21.47
2018-06-30T12:59:44.081Z,21.37
2018-06-30T13:02:13.386Z,21.39
2018-06-30T13:04:42.556Z,21.38
2018-06-30T13:07:11.757Z,21.35
2018-06-30T13:09:41.030Z,21.37
2018-06-30T13:12:10.282Z,21.43
2018-06-30T13:14:39.494Z,21.58
2018-06-30T13:17:08.737Z,21.67
2018-06-30T13:19:37.996Z,21.77
2018-06-30T13:22:07.557Z,21.91
2018-06-30T13:24:36.841Z,22.02
2018-06-30T13:27:06.373Z,22.03
2018-06-30T13:29:35.657Z,22.11
2018-06-30T13:32:04.991Z,22.20
2018-06-30T13:34:34.294Z,22.26
2018-06-30T13:37:03.640Z,22.28
2018-06-30T13:39:32.961Z,22.26
2018-06-30T13:42:02.295Z,22.21
2018-06-30T13:44:31.753Z,22.20
2018-06-30T13:47:01.154Z,22.21
2018-06-30T13:49:30.346Z,22.19
2018-06-30T13:51:59.630Z,22.20
2018-06-30T13:54:28.911Z,22.06
2018-06-30T13:56:58.116Z,22.03
2018-06-30T13:59:27.284Z,22.04
2018-06-30T14:01:56.718Z,22.01
2018-06-30T14:04:26.402Z,21.97
2018-06-30T14:06:55.589Z,21.94
2018-06-30T14:09:24.933Z,21.92
2018-06-30T14:11:54.136Z,21.88
2018-06-30T14:14:23.493Z,21.86
2018-06-30T14:16:53.333Z,21.85
2018-06-30T14:19:22.744Z,21.79
2018-06-30T14:21:52.053Z,21.76
2018-06-30T14:24:21.544Z,21.72
2018-06-30T14:26:50.877Z,21.71
2018-06-30T14:29:20.193Z,21.67
2018-06-30T14:31:49.526Z,21.65
2018-06-30T14:34:18.825Z,21.58
2018-06-30T14:36:48.176Z,21.56
2018-06-30T14:39:17.347Z,21.54
2018-06-30T14:41:46.676Z,21.42
2018-06-30T14:44:15.977Z,21.36
2018-06-30T14:46:45.271Z,21.30
2018-06-30T14:49:14.529Z,21.24
2018-06-30T14:51:43.744Z,21.15
2018-06-30T14:54:12.821Z,21.16
2018-06-30T14:56:42.192Z,21.14
2018-06-30T14:59:11.693Z,21.15
2018-06-30T15:01:40.944Z,21.18
2018-06-30T15:04:10.244Z,21.18
2018-06-30T15:06:39.549Z,21.28
2018-06-30T15:09:12.994Z,21.50
2018-06-30T15:11:43.277Z,21.58
2018-06-30T15:14:13.053Z,21.55
2018-06-30T15:16:42.373Z,21.48
2018-06-30T15:19:11.692Z,21.45
2018-06-30T15:21:40.900Z,21.43
2018-06-30T15:24:10.536Z,21.43
2018-06-30T15:26:39.902Z,21.43
2018-06-30T15:29:09.208Z,21.39
2018-06-30T15:31:38.671Z,21.36
2018-06-30T15:34:07.964Z,21.32
2018-06-30T15:36:37.345Z,21.18
2018-06-30T15:39:09.410Z,21.08
2018-06-30T15:41:38.612Z,20.99
2018-06-30T15:44:08.120Z,20.88
2018-06-30T15:46:37.459Z,20.91
2018-06-30T15:49:07.329Z,20.86
2018-06-30T15:51:36.572Z,20.84
2018-06-30T15:54:06.124Z,20.85
2018-06-30T15:56:35.508Z,20.80
2018-06-30T15:59:04.996Z,20.79
2018-06-30T16:01:34.355Z,20.76
2018-06-30T16:04:03.575Z,20.72
2018-06-30T16:06:32.809Z,20.74
2018-06-30T16:09:02.029Z,20.70
2018-06-30T16:11:31.265Z,20.71
2018-06-30T16:14:00.560Z,20.73
2018-06-30T16:16:29.827Z,20.72
2018-06-30T16:18:59.174Z,20.72
2018-06-30T16:21:28.512Z,20.75
2018-06-30T16:23:57.817Z,20.68
2018-06-30T16:26:27.154Z,20.55
2018-06-30T16:28:56.602Z,20.51
2018-06-30T16:31:25.931Z,20.46
2018-06-30T16:33:55.243Z,20.42
2018-06-30T16:36:24.576Z,20.40
2018-06-30T16:38:53.789Z,20.39
2018-06-30T16:41:23.286Z,20.38
2018-06-30T16:43:52.682Z,20.38
2018-06-30T16:46:21.876Z,20.37
2018-06-30T16:48:51.060Z,20.34
2018-06-30T16:51:20.340Z,20.28
2018-06-30T16:53:49.553Z,20.28
2018-06-30T16:56:18.793Z,20.32
2018-06-30T16:58:48.015Z,20.28
2018-06-30T17:01:17.383Z,20.27
2018-06-30T17:03:46.657Z,20.25
2018-06-30T17:06:15.904Z,20.22
2018-06-30T17:08:45.212Z,20.16
2018-06-30T17:11:14.601Z,20.16
2018-06-30T17:13:44.422Z,20.14
2018-06-30T17:16:14.213Z,20.19
2018-06-30T17:18:43.597Z,20.15
2018-06-30T17:21:13.662Z,20.12
2018-06-30T17:23:43.156Z,20.07
2018-06-30T17:26:12.564Z,20.03
2018-06-30T17:28:42.119Z,20.00
2018-06-30T17:31:11.241Z,19.97
2018-06-30T17:33:40.433Z,19.94
2018-06-30T17:36:09.607Z,19.92
2018-06-30T17:38:39.358Z,19.89
2018-06-30T17:41:08.689Z,19.85
2018-06-30T17:43:37.940Z,19.82
2018-06-30T17:46:07.535Z,19.81
2018-06-30T17:48:36.946Z,19.81
2018-06-30T17:51:06.542Z,19.88
2018-06-30T17:53:35.758Z,19.92
2018-06-30T17:56:05.432Z,19.89
2018-06-30T17:58:34.775Z,19.90
2018-06-30T18:01:03.864Z,19.91
2018-06-30T18:03:33.212Z,19.91
2018-06-30T18:06:02.518Z,19.90
2018-06-30T18:08:31.904Z,19.92
2018-06-30T18:11:00.996Z,19.86
2018-06-30T18:13:30.353Z,19.84
2018-06-30T18:15:59.595Z,19.78
2018-06-30T18:18:28.768Z,19.76
2018-06-30T18:20:58.077Z,19.75
2018-06-30T18:23:27.404Z,19.69
2018-06-30T18:25:56.856Z,19.58
2018-06-30T18:28:26.149Z,19.61
2018-06-30T18:30:55.401Z,19.60
2018-06-30T18:33:24.541Z,19.62
2018-06-30T18:35:53.957Z,19.63
2018-06-30T18:38:23.137Z,19.60
2018-06-30T18:40:52.368Z,19.54
2018-06-30T18:43:21.616Z,19.54
2018-06-30T18:45:50.768Z,19.47
2018-06-30T18:48:19.924Z,19.47
2018-06-30T18:50:49.239Z,19.43
2018-06-30T18:53:18.827Z,19.46
2018-06-30T18:55:48.287Z,19.42
2018-06-30T18:58:17.816Z,19.43
2018-06-30T19:00:47.380Z,19.42
2018-06-30T19:03:16.881Z,19.38
2018-06-30T19:05:46.579Z,19.36
2018-06-30T19:08:16.091Z,19.32
2018-06-30T19:10:45.672Z,19.27
2018-06-30T19:13:15.218Z,19.27
2018-06-30T19:15:44.570Z,19.27
2018-06-30T19:18:14.181Z,19.26
2018-06-30T19:20:43.728Z,19.26
2018-06-30T19:23:13.290Z,19.24
2018-06-30T19:25:42.605Z,19.23
2018-06-30T19:28:11.913Z,19.19
2018-06-30T19:30:41.226Z,19.22
2018-06-30T19:33:11.017Z,19.21
2018-06-30T19:35:40.310Z,19.26
2018-06-30T19:38:09.563Z,19.25
2018-06-30T19:40:38.927Z,19.28
2018-06-30T19:43:08.370Z,19.35
2018-06-30T19:45:37.607Z,19.38
2018-06-30T19:48:06.841Z,19.53
2018-06-30T19:50:36.184Z,19.62
2018-06-30T19:53:05.484Z,19.59
2018-06-30T19:55:34.629Z,19.64
2018-06-30T19:58:03.840Z,19.68
2018-06-30T20:00:33.183Z,19.71
2018-06-30T20:03:02.609Z,19.74
2018-06-30T20:05:32.002Z,19.74
2018-06-30T20:08:01.321Z,19.66
2018-06-30T20:10:30.601Z,19.63
2018-06-30T20:13:00.332Z,19.61
2018-06-30T20:15:29.786Z,19.57
2018-06-30T20:17:59.093Z,19.56
2018-06-30T20:20:28.409Z,19.53
2018-06-30T20:22:57.881Z,19.48
2018-06-30T20:25:27.183Z,19.45
2018-06-30T20:27:56.385Z,19.38
2018-06-30T20:30:25.733Z,19.27
2018-06-30T20:32:54.994Z,19.24
2018-06-30T20:35:24.264Z,19.26
2018-06-30T20:37:53.587Z,19.26
2018-06-30T20:40:22.880Z,19.24
2018-06-30T20:42:52.143Z,19.23
2018-06-30T20:45:21.369Z,19.25
2018-06-30T20:47:50.500Z,19.25
2018-06-30T20:50:19.828Z,19.21
2018-06-30T20:52:49.055Z,19.22
2018-06-30T20:55:18.330Z,19.15
2018-06-30T20:57:47.521Z,19.12
2018-06-30T21:00:16.748Z,19.09
2018-06-30T21:02:45.956Z,19.01
2018-06-30T21:05:15.196Z,18.93
2018-06-30T21:07:44.473Z,18.87
2018-06-30T21:10:13.953Z,18.85
2018-06-30T21:12:43.305Z,18.81
2018-06-30T21:15:12.564Z,18.75
2018-06-30T21:17:42.014Z,18.71
2018-06-30T21:20:11.416Z,18.66
2018-06-30T21:22:40.673Z,18.63
2018-06-30T21:25:09.928Z,18.59
2018-06-30T21:27:39.277Z,18.58
2018-06-30T21:30:08.612Z,18.59
2018-06-30T21:32:37.837Z,18.61
2018-06-30T21:35:07.176Z,18.67
2018-06-30T21:37:36.480Z,18.67
2018-06-30T21:40:05.881Z,18.67
2018-06-30T21:42:35.292Z,18.77
2018-06-30T21:45:04.932Z,18.76
2018-06-30T21:47:34.245Z,18.76
2018-06-30T21:50:03.613Z,18.75
2018-06-30T21:52:32.852Z,18.76
2018-06-30T21:55:02.057Z,18.70
2018-06-30T21:57:31.300Z,18.67
2018-06-30T22:00:00.613Z,18.70
2018-06-30T22:02:29.904Z,18.70
2018-06-30T22:04:59.158Z,18.76
2018-06-30T22:07:28.343Z,18.87
2018-06-30T22:09:57.550Z,18.92
2018-06-30T22:12:26.823Z,18.96
2018-06-30T22:14:56.134Z,18.98
2018-06-30T22:17:25.380Z,19.00
2018-06-30T22:19:54.824Z,19.01
2018-06-30T22:22:24.004Z,18.99
2018-06-30T22:24:53.180Z,19.02
2018-06-30T22:27:22.305Z,19.01
2018-06-30T22:29:51.491Z,19.00
2018-06-30T22:32:20.724Z,18.98
2018-06-30T22:34:49.864Z,18.95
2018-06-30T22:37:19.076Z,18.90
2018-06-30T22:39:59.011Z,18.92
2018-06-30T22:42:28.308Z,18.91
2018-06-30T22:44:57.664Z,18.94
2018-06-30T22:47:27.144Z,18.95
2018-06-30T22:49:56.431Z,18.98
2018-06-30T22:52:25.728Z,19.00
2018-06-30T22:54:55.068Z,19.09
2018-06-30T22:57:24.440Z,19.16
2018-06-30T22:59:53.859Z,19.31
2018-06-30T23:02:23.204Z,19.37
2018-06-30T23:04:52.455Z,19.34
2018-06-30T23:07:21.702Z,19.32
2018-06-30T23:09:51.095Z,19.29
2018-06-30T23:12:20.410Z,19.26
2018-06-30T23:14:49.655Z,19.22
2018-06-30T23:17:18.786Z,19.18
2018-06-30T23:19:48.070Z,19.15
2018-06-30T23:22:25.329Z,19.16
2018-06-30T23:24:54.800Z,19.12
2018-06-30T23:27:24.100Z,19.12
2018-06-30T23:29:53.501Z,19.16
2018-06-30T23:32:22.844Z,19.18
2018-06-30T23:34:52.196Z,19.19
2018-06-30T23:37:21.464Z,19.20
2018-06-30T23:39:50.827Z,19.19
2018-06-30T23:42:20.131Z,19.21
2018-06-30T23:44:49.435Z,19.25
2018-06-30T23:47:18.763Z,19.28
2018-06-30T23:49:48.027Z,19.22
2018-06-30T23:52:17.215Z,19.17
2018-06-30T23:54:46.425Z,19.10
2018-06-30T23:57:15.784Z,19.11
2018-06-30T23:59:45.028Z,19.09
